sensor_id;sensor_type;location;lat;lon;timestamp;noise_LAeq;noise_LA_min;noise_LA_max;noise_LA01;noise_LA95
72805;Laerm;60920;48.748;19.142;2024-03-23T00:54:31;29.07;27.64;30.36;;
72805;Laerm;60920;48.748;19.142;2024-03-23T00:56:57;29.09;27.72;30.31;;
72805;Laerm;60920;48.748;19.142;2024-03-23T00:59:22;29.07;27.72;30.49;;
72805;Laerm;60920;48.748;19.142;2024-03-23T01:01:52;29.08;27.71;30.22;;
72805;Laerm;60920;48.748;19.142;2024-03-23T01:04:17;29.05;27.82;30.39;;
72805;Laerm;60920;48.748;19.142;2024-03-23T01:06:42;29.02;27.80;30.25;;
72805;Laerm;60920;48.748;19.142;2024-03-23T01:09:08;29.02;27.77;30.30;;
72805;Laerm;60920;48.748;19.142;2024-03-23T01:11:35;29.02;27.58;30.20;;
72805;Laerm;60920;48.748;19.142;2024-03-23T01:14:01;29.03;27.64;30.23;;
72805;Laerm;60920;48.748;19.142;2024-03-23T01:16:26;29.03;27.70;30.73;;
72805;Laerm;60920;48.748;19.142;2024-03-23T01:18:51;29.03;27.73;30.22;;
72805;Laerm;60920;48.748;19.142;2024-03-23T01:21:16;29.05;27.87;30.26;;
72805;Laerm;60920;48.748;19.142;2024-03-23T01:23:42;29.05;27.62;30.24;;
72805;Laerm;60920;48.748;19.142;2024-03-23T01:26:07;29.04;27.73;30.32;;
72805;Laerm;60920;48.748;19.142;2024-03-23T01:28:33;29.01;27.88;30.32;;
72805;Laerm;60920;48.748;19.142;2024-03-23T01:30:58;29.01;27.70;30.21;;
72805;Laerm;60920;48.748;19.142;2024-03-23T01:33:23;28.98;27.78;30.32;;
72805;Laerm;60920;48.748;19.142;2024-03-23T01:35:48;28.97;27.74;30.18;;
72805;Laerm;60920;48.748;19.142;2024-03-23T01:38:14;28.98;27.56;30.11;;
72805;Laerm;60920;48.748;19.142;2024-03-23T01:40:39;28.97;27.68;30.07;;
72805;Laerm;60920;48.748;19.142;2024-03-23T01:43:05;28.97;27.53;30.12;;
72805;Laerm;60920;48.748;19.142;2024-03-23T01:45:30;28.95;27.82;30.27;;
72805;Laerm;60920;48.748;19.142;2024-03-23T01:47:56;28.95;27.78;30.22;;
72805;Laerm;60920;48.748;19.142;2024-03-23T01:50:22;28.97;27.52;30.12;;
72805;Laerm;60920;48.748;19.142;2024-03-23T01:52:48;28.95;27.57;30.12;;
72805;Laerm;60920;48.748;19.142;2024-03-23T01:55:14;28.96;27.76;30.24;;
72805;Laerm;60920;48.748;19.142;2024-03-23T01:57:39;28.95;27.67;30.20;;
72805;Laerm;60920;48.748;19.142;2024-03-23T02:00:05;28.95;27.40;30.11;;
72805;Laerm;60920;48.748;19.142;2024-03-23T02:02:31;28.94;27.29;30.04;;
72805;Laerm;60920;48.748;19.142;2024-03-23T02:04:56;28.93;27.49;30.01;;
72805;Laerm;60920;48.748;19.142;2024-03-23T02:07:22;28.96;27.56;30.22;;
72805;Laerm;60920;48.748;19.142;2024-03-23T02:09:48;28.98;27.78;30.38;;
72805;Laerm;60920;48.748;19.142;2024-03-23T02:12:14;28.99;27.43;30.15;;
72805;Laerm;60920;48.748;19.142;2024-03-23T02:14:40;29.00;27.61;30.55;;
72805;Laerm;60920;48.748;19.142;2024-03-23T02:17:05;29.00;27.55;30.38;;
72805;Laerm;60920;48.748;19.142;2024-03-23T02:19:30;28.99;27.79;30.20;;
72805;Laerm;60920;48.748;19.142;2024-03-23T02:21:56;29.01;27.63;30.08;;
72805;Laerm;60920;48.748;19.142;2024-03-23T02:24:21;29.00;27.81;30.31;;
72805;Laerm;60920;48.748;19.142;2024-03-23T02:26:46;28.99;27.70;30.34;;
72805;Laerm;60920;48.748;19.142;2024-03-23T02:29:13;29.01;27.61;30.32;;
72805;Laerm;60920;48.748;19.142;2024-03-23T02:31:39;29.00;27.63;30.36;;
72805;Laerm;60920;48.748;19.142;2024-03-23T02:34:04;28.96;27.53;30.18;;
72805;Laerm;60920;48.748;19.142;2024-03-23T02:36:29;29.00;27.70;30.17;;
72805;Laerm;60920;48.748;19.142;2024-03-23T02:38:56;29.00;27.76;30.48;;
72805;Laerm;60920;48.748;19.142;2024-03-23T02:41:21;29.00;27.56;30.28;;
72805;Laerm;60920;48.748;19.142;2024-03-23T02:43:51;29.00;27.70;30.24;;
72805;Laerm;60920;48.748;19.142;2024-03-23T02:46:17;29.00;27.61;30.40;;
72805;Laerm;60920;48.748;19.142;2024-03-23T02:48:42;29.00;27.52;30.45;;
72805;Laerm;60920;48.748;19.142;2024-03-23T02:51:08;29.03;27.72;30.39;;
72805;Laerm;60920;48.748;19.142;2024-03-23T02:53:33;29.04;27.80;30.24;;
72805;Laerm;60920;48.748;19.142;2024-03-23T02:55:59;29.01;27.30;30.13;;
72805;Laerm;60920;48.748;19.142;2024-03-23T02:58:24;29.01;27.30;30.15;;
72805;Laerm;60920;48.748;19.142;2024-03-23T03:00:49;29.00;27.65;30.23;;
72805;Laerm;60920;48.748;19.142;2024-03-23T03:03:15;29.01;27.60;30.26;;
72805;Laerm;60920;48.748;19.142;2024-03-23T03:05:40;29.01;27.86;30.17;;
72805;Laerm;60920;48.748;19.142;2024-03-23T03:08:05;29.01;27.60;30.30;;
72805;Laerm;60920;48.748;19.142;2024-03-23T03:10:30;29.00;27.71;30.19;;
72805;Laerm;60920;48.748;19.142;2024-03-23T03:12:59;29.03;27.62;30.30;;
72805;Laerm;60920;48.748;19.142;2024-03-23T03:15:25;29.05;27.37;30.21;;
72805;Laerm;60920;48.748;19.142;2024-03-23T03:17:50;29.05;27.76;30.26;;
72805;Laerm;60920;48.748;19.142;2024-03-23T03:20:15;29.04;27.74;30.25;;
72805;Laerm;60920;48.748;19.142;2024-03-23T03:22:42;29.02;27.66;30.36;;
72805;Laerm;60920;48.748;19.142;2024-03-23T03:25:07;29.02;27.80;30.32;;
72805;Laerm;60920;48.748;19.142;2024-03-23T03:27:33;29.02;27.81;30.23;;
72805;Laerm;60920;48.748;19.142;2024-03-23T03:29:59;29.01;27.79;30.14;;
72805;Laerm;60920;48.748;19.142;2024-03-23T03:32:27;29.02;27.62;30.35;;
72805;Laerm;60920;48.748;19.142;2024-03-23T03:34:52;29.01;27.77;30.30;;
72805;Laerm;60920;48.748;19.142;2024-03-23T03:37:18;29.01;27.55;30.44;;
72805;Laerm;60920;48.748;19.142;2024-03-23T03:39:43;29.00;27.65;30.24;;
72805;Laerm;60920;48.748;19.142;2024-03-23T03:42:08;29.02;27.66;30.33;;
72805;Laerm;60920;48.748;19.142;2024-03-23T03:44:33;29.02;27.73;30.28;;
72805;Laerm;60920;48.748;19.142;2024-03-23T03:46:59;29.04;27.74;30.27;;
72805;Laerm;60920;48.748;19.142;2024-03-23T03:49:24;29.04;27.89;30.53;;
72805;Laerm;60920;48.748;19.142;2024-03-23T03:51:50;29.05;27.70;30.31;;
72805;Laerm;60920;48.748;19.142;2024-03-23T03:54:15;29.07;27.75;30.44;;
72805;Laerm;60920;48.748;19.142;2024-03-23T03:56:40;29.08;27.81;30.28;;
72805;Laerm;60920;48.748;19.142;2024-03-23T03:59:06;29.08;27.74;30.37;;
72805;Laerm;60920;48.748;19.142;2024-03-23T04:01:31;29.10;27.65;30.31;;
72805;Laerm;60920;48.748;19.142;2024-03-23T04:03:56;29.08;27.78;30.58;;
72805;Laerm;60920;48.748;19.142;2024-03-23T04:06:21;29.07;27.62;30.29;;
72805;Laerm;60920;48.748;19.142;2024-03-23T04:08:47;29.07;27.77;30.41;;
72805;Laerm;60920;48.748;19.142;2024-03-23T04:11:12;29.09;27.90;30.65;;
72805;Laerm;60920;48.748;19.142;2024-03-23T04:13:37;29.07;27.71;30.37;;
72805;Laerm;60920;48.748;19.142;2024-03-23T04:16:03;29.03;27.77;30.45;;
72805;Laerm;60920;48.748;19.142;2024-03-23T04:18:28;29.04;27.73;30.20;;
72805;Laerm;60920;48.748;19.142;2024-03-23T04:20:54;29.03;27.62;30.30;;
72805;Laerm;60920;48.748;19.142;2024-03-23T04:23:19;29.03;27.78;30.29;;
72805;Laerm;60920;48.748;19.142;2024-03-23T04:25:44;29.06;27.75;30.47;;
72805;Laerm;60920;48.748;19.142;2024-03-23T04:28:09;29.11;27.72;30.39;;
72805;Laerm;60920;48.748;19.142;2024-03-23T04:30:35;29.10;27.86;30.30;;
72805;Laerm;60920;48.748;19.142;2024-03-23T04:33:00;29.10;27.96;30.54;;
72805;Laerm;60920;48.748;19.142;2024-03-23T04:35:26;29.12;27.77;30.41;;
72805;Laerm;60920;48.748;19.142;2024-03-23T04:37:51;29.10;27.70;30.31;;
72805;Laerm;60920;48.748;19.142;2024-03-23T04:40:17;29.14;27.76;30.65;;
72805;Laerm;60920;48.748;19.142;2024-03-23T04:42:42;29.12;27.69;30.31;;
72805;Laerm;60920;48.748;19.142;2024-03-23T04:45:08;29.14;27.68;30.34;;
72805;Laerm;60920;48.748;19.142;2024-03-23T04:47:34;29.15;27.89;30.82;;
72805;Laerm;60920;48.748;19.142;2024-03-23T04:50:01;29.13;27.88;30.66;;
72805;Laerm;60920;48.748;19.142;2024-03-23T04:52:26;29.16;27.86;30.30;;
72805;Laerm;60920;48.748;19.142;2024-03-23T04:54:52;29.16;27.88;30.41;;
72805;Laerm;60920;48.748;19.142;2024-03-23T04:57:17;29.16;27.73;30.46;;
72805;Laerm;60920;48.748;19.142;2024-03-23T04:59:53;29.17;27.92;30.39;;
72805;Laerm;60920;48.748;19.142;2024-03-23T05:02:18;29.18;27.73;30.45;;
72805;Laerm;60920;48.748;19.142;2024-03-23T05:04:44;29.21;27.95;30.40;;
72805;Laerm;60920;48.748;19.142;2024-03-23T05:07:09;29.23;28.01;33.22;;
72805;Laerm;60920;48.748;19.142;2024-03-23T05:09:34;29.22;27.91;31.32;;
72805;Laerm;60920;48.748;19.142;2024-03-23T05:12:00;29.21;27.66;30.53;;
72805;Laerm;60920;48.748;19.142;2024-03-23T05:14:25;29.20;27.94;30.34;;
72805;Laerm;60920;48.748;19.142;2024-03-23T05:16:51;29.19;27.78;30.70;;
72805;Laerm;60920;48.748;19.142;2024-03-23T05:19:17;29.17;27.62;30.34;;
72805;Laerm;60920;48.748;19.142;2024-03-23T05:21:42;29.13;27.75;30.26;;
72805;Laerm;60920;48.748;19.142;2024-03-23T05:24:07;29.13;27.84;30.39;;
72805;Laerm;60920;48.748;19.142;2024-03-23T05:26:32;29.10;27.62;30.25;;
72805;Laerm;60920;48.748;19.142;2024-03-23T05:28:59;29.10;27.83;30.32;;
72805;Laerm;60920;48.748;19.142;2024-03-23T05:31:24;29.08;27.81;30.41;;
72805;Laerm;60920;48.748;19.142;2024-03-23T05:33:50;29.10;27.83;30.44;;
72805;Laerm;60920;48.748;19.142;2024-03-23T05:36:15;29.11;27.85;30.58;;
72805;Laerm;60920;48.748;19.142;2024-03-23T05:38:40;29.10;27.78;30.53;;
72805;Laerm;60920;48.748;19.142;2024-03-23T05:41:05;29.06;27.90;30.30;;
72805;Laerm;60920;48.748;19.142;2024-03-23T05:43:31;29.05;27.65;30.37;;
72805;Laerm;60920;48.748;19.142;2024-03-23T05:45:56;29.08;27.76;30.83;;
72805;Laerm;60920;48.748;19.142;2024-03-23T05:48:22;29.10;27.94;34.30;;
72805;Laerm;60920;48.748;19.142;2024-03-23T05:50:48;29.02;27.74;30.42;;
72805;Laerm;60920;48.748;19.142;2024-03-23T05:53:14;29.04;27.43;30.13;;
72805;Laerm;60920;48.748;19.142;2024-03-23T05:55:39;29.56;27.88;48.49;;
72805;Laerm;60920;48.748;19.142;2024-03-23T05:58:05;29.02;27.48;30.20;;
72805;Laerm;60920;48.748;19.142;2024-03-23T06:00:30;28.99;27.72;30.16;;
72805;Laerm;60920;48.748;19.142;2024-03-23T06:02:55;28.94;27.52;30.18;;
72805;Laerm;60920;48.748;19.142;2024-03-23T06:05:20;28.91;27.66;30.01;;
72805;Laerm;60920;48.748;19.142;2024-03-23T06:07:46;28.89;27.47;30.15;;
72805;Laerm;60920;48.748;19.142;2024-03-23T06:10:11;28.87;27.46;30.08;;
72805;Laerm;60920;48.748;19.142;2024-03-23T06:12:36;28.84;27.59;29.99;;
72805;Laerm;60920;48.748;19.142;2024-03-23T06:15:02;28.85;27.68;30.00;;
72805;Laerm;60920;48.748;19.142;2024-03-23T06:17:27;28.85;27.65;30.07;;
72805;Laerm;60920;48.748;19.142;2024-03-23T06:19:52;28.88;27.58;30.01;;
72805;Laerm;60920;48.748;19.142;2024-03-23T06:22:18;28.89;27.72;30.02;;
72805;Laerm;60920;48.748;19.142;2024-03-23T06:24:44;28.94;27.73;30.18;;
72805;Laerm;60920;48.748;19.142;2024-03-23T06:27:09;28.98;27.70;30.24;;
72805;Laerm;60920;48.748;19.142;2024-03-23T06:29:34;29.00;27.78;30.15;;
72805;Laerm;60920;48.748;19.142;2024-03-23T06:32:01;28.99;27.73;31.52;;
72805;Laerm;60920;48.748;19.142;2024-03-23T06:34:27;29.00;27.74;30.05;;
72805;Laerm;60920;48.748;19.142;2024-03-23T06:36:52;29.08;27.67;32.18;;
72805;Laerm;60920;48.748;19.142;2024-03-23T06:39:17;29.13;27.83;30.34;;
72805;Laerm;60920;48.748;19.142;2024-03-23T06:41:42;29.22;27.85;30.46;;
72805;Laerm;60920;48.748;19.142;2024-03-23T06:44:08;29.25;28.00;30.41;;
72805;Laerm;60920;48.748;19.142;2024-03-23T06:46:33;29.32;28.20;30.60;;
72805;Laerm;60920;48.748;19.142;2024-03-23T06:48:59;29.36;28.23;30.58;;
72805;Laerm;60920;48.748;19.142;2024-03-23T06:51:24;29.36;27.81;30.46;;
72805;Laerm;60920;48.748;19.142;2024-03-23T06:53:49;29.40;28.18;30.54;;
72805;Laerm;60920;48.748;19.142;2024-03-23T06:56:15;29.43;28.19;30.68;;
72805;Laerm;60920;48.748;19.142;2024-03-23T06:58:40;29.64;28.51;30.93;;
72805;Laerm;60920;48.748;19.142;2024-03-23T07:01:05;29.76;28.36;30.97;;
72805;Laerm;60920;48.748;19.142;2024-03-23T07:03:30;29.79;28.46;31.05;;
72805;Laerm;60920;48.748;19.142;2024-03-23T07:05:59;29.90;28.69;31.15;;
72805;Laerm;60920;48.748;19.142;2024-03-23T07:08:24;29.84;28.55;30.98;;
72805;Laerm;60920;48.748;19.142;2024-03-23T07:10:49;29.72;28.34;30.95;;
72805;Laerm;60920;48.748;19.142;2024-03-23T07:13:15;29.84;28.60;31.03;;
72805;Laerm;60920;48.748;19.142;2024-03-23T07:15:40;30.07;28.68;31.35;;
72805;Laerm;60920;48.748;19.142;2024-03-23T07:18:05;30.46;28.94;36.22;;
72805;Laerm;60920;48.748;19.142;2024-03-23T07:20:31;30.43;29.28;31.63;;
72805;Laerm;60920;48.748;19.142;2024-03-23T07:22:56;30.52;29.31;39.68;;
72805;Laerm;60920;48.748;19.142;2024-03-23T07:25:22;30.51;29.05;31.89;;
72805;Laerm;60920;48.748;19.142;2024-03-23T07:27:48;30.78;29.58;31.81;;
72805;Laerm;60920;48.748;19.142;2024-03-23T07:30:13;30.98;29.64;32.24;;
72805;Laerm;60920;48.748;19.142;2024-03-23T07:32:39;30.86;29.53;32.03;;
72805;Laerm;60920;48.748;19.142;2024-03-23T07:35:04;30.81;29.31;32.04;;
72805;Laerm;60920;48.748;19.142;2024-03-23T07:37:29;30.86;29.70;31.94;;
72805;Laerm;60920;48.748;19.142;2024-03-23T07:39:55;30.91;29.65;32.06;;
72805;Laerm;60920;48.748;19.142;2024-03-23T07:42:20;31.08;29.83;32.37;;
72805;Laerm;60920;48.748;19.142;2024-03-23T07:44:45;31.16;30.01;32.73;;
72805;Laerm;60920;48.748;19.142;2024-03-23T07:47:11;31.16;29.72;32.40;;
72805;Laerm;60920;48.748;19.142;2024-03-23T07:49:37;31.17;29.84;32.76;;
72805;Laerm;60920;48.748;19.142;2024-03-23T07:52:02;31.13;29.96;32.63;;
72805;Laerm;60920;48.748;19.142;2024-03-23T07:54:28;31.15;29.76;32.28;;
72805;Laerm;60920;48.748;19.142;2024-03-23T07:56:54;31.12;29.71;32.28;;
72805;Laerm;60920;48.748;19.142;2024-03-23T07:59:19;31.10;29.81;32.27;;
72805;Laerm;60920;48.748;19.142;2024-03-23T08:01:44;31.10;29.80;32.24;;
72805;Laerm;60920;48.748;19.142;2024-03-23T08:04:10;31.08;29.82;32.56;;
72805;Laerm;60920;48.748;19.142;2024-03-23T08:06:35;30.97;29.65;32.18;;
72805;Laerm;60920;48.748;19.142;2024-03-23T08:09:00;31.02;29.66;32.20;;
72805;Laerm;60920;48.748;19.142;2024-03-23T08:11:26;31.09;29.85;32.30;;
72805;Laerm;60920;48.748;19.142;2024-03-23T08:13:52;31.08;29.86;32.44;;
72805;Laerm;60920;48.748;19.142;2024-03-23T08:16:17;31.05;29.70;32.24;;
72805;Laerm;60920;48.748;19.142;2024-03-23T08:18:42;31.08;29.65;32.32;;
72805;Laerm;60920;48.748;19.142;2024-03-23T08:21:08;31.11;29.80;32.88;;
72805;Laerm;60920;48.748;19.142;2024-03-23T08:23:33;31.13;29.89;33.63;;
72805;Laerm;60920;48.748;19.142;2024-03-23T08:26:01;31.12;29.85;34.52;;
72805;Laerm;60920;48.748;19.142;2024-03-23T08:28:27;31.09;29.83;32.33;;
72805;Laerm;60920;48.748;19.142;2024-03-23T08:30:52;31.11;29.84;32.29;;
72805;Laerm;60920;48.748;19.142;2024-03-23T08:33:18;31.20;29.78;43.77;;
72805;Laerm;60920;48.748;19.142;2024-03-23T08:35:52;31.05;29.75;32.27;;
72805;Laerm;60920;48.748;19.142;2024-03-23T08:38:18;31.06;29.80;32.42;;
72805;Laerm;60920;48.748;19.142;2024-03-23T08:40:43;31.09;29.92;32.32;;
72805;Laerm;60920;48.748;19.142;2024-03-23T08:43:08;31.08;29.84;32.25;;
72805;Laerm;60920;48.748;19.142;2024-03-23T08:45:34;31.09;29.42;32.56;;
72805;Laerm;60920;48.748;19.142;2024-03-23T08:47:59;31.10;29.77;32.29;;
72805;Laerm;60920;48.748;19.142;2024-03-23T08:50:24;31.11;29.85;32.31;;
72805;Laerm;60920;48.748;19.142;2024-03-23T08:52:50;30.98;29.56;32.16;;
72805;Laerm;60920;48.748;19.142;2024-03-23T08:55:15;30.97;29.61;32.11;;
72805;Laerm;60920;48.748;19.142;2024-03-23T08:57:41;30.83;29.56;32.44;;
72805;Laerm;60920;48.748;19.142;2024-03-23T09:00:06;30.85;29.47;32.00;;
72805;Laerm;60920;48.748;19.142;2024-03-23T09:02:34;30.90;29.64;32.09;;
72805;Laerm;60920;48.748;19.142;2024-03-23T09:04:59;30.75;29.23;34.81;;
72805;Laerm;60920;48.748;19.142;2024-03-23T09:07:29;30.43;29.21;32.02;;
72805;Laerm;60920;48.748;19.142;2024-03-23T09:09:54;30.30;28.89;31.79;;
72805;Laerm;60920;48.748;19.142;2024-03-23T09:12:20;30.32;28.89;31.90;;
72805;Laerm;60920;48.748;19.142;2024-03-23T09:14:45;30.33;28.97;31.91;;
72805;Laerm;60920;48.748;19.142;2024-03-23T09:17:10;30.26;28.93;31.47;;
72805;Laerm;60920;48.748;19.142;2024-03-23T09:19:35;30.13;28.46;31.42;;
72805;Laerm;60920;48.748;19.142;2024-03-23T09:22:01;29.94;28.43;31.45;;
72805;Laerm;60920;48.748;19.142;2024-03-23T09:24:26;29.51;28.17;30.86;;
72805;Laerm;60920;48.748;19.142;2024-03-23T09:26:51;29.47;28.00;30.92;;
72805;Laerm;60920;48.748;19.142;2024-03-23T09:29:17;31.22;28.08;51.05;;
72805;Laerm;60920;48.748;19.142;2024-03-23T09:31:42;29.54;28.24;30.81;;
72805;Laerm;60920;48.748;19.142;2024-03-23T09:34:07;29.26;27.68;35.78;;
72805;Laerm;60920;48.748;19.142;2024-03-23T09:36:33;29.14;27.67;33.08;;
72805;Laerm;60920;48.748;19.142;2024-03-23T09:38:58;29.04;27.67;30.33;;
72805;Laerm;60920;48.748;19.142;2024-03-23T09:41:23;28.89;27.36;30.49;;
72805;Laerm;60920;48.748;19.142;2024-03-23T09:43:52;28.88;27.31;33.37;;
72805;Laerm;60920;48.748;19.142;2024-03-23T09:46:17;28.79;27.33;37.02;;
72805;Laerm;60920;48.748;19.142;2024-03-23T09:48:42;28.68;27.23;32.52;;
72805;Laerm;60920;48.748;19.142;2024-03-23T09:51:09;28.55;27.14;29.81;;
72805;Laerm;60920;48.748;19.142;2024-03-23T09:53:34;28.54;27.21;30.24;;
72805;Laerm;60920;48.748;19.142;2024-03-23T09:56:00;28.46;27.21;29.77;;
72805;Laerm;60920;48.748;19.142;2024-03-23T09:58:25;28.41;27.01;30.06;;
72805;Laerm;60920;48.748;19.142;2024-03-23T10:00:50;28.34;27.07;31.49;;
72805;Laerm;60920;48.748;19.142;2024-03-23T10:03:15;28.27;27.03;30.16;;
72805;Laerm;60920;48.748;19.142;2024-03-23T10:05:41;28.29;26.93;31.33;;
72805;Laerm;60920;48.748;19.142;2024-03-23T10:10:39;28.39;26.92;31.99;;
72805;Laerm;60920;48.748;19.142;2024-03-23T10:13:04;28.31;27.05;30.38;;
72805;Laerm;60920;48.748;19.142;2024-03-23T10:15:29;28.35;26.92;30.03;;
72805;Laerm;60920;48.748;19.142;2024-03-23T10:17:55;28.48;27.06;35.66;;
72805;Laerm;60920;48.748;19.142;2024-03-23T10:20:20;28.34;27.15;30.20;;
72805;Laerm;60920;48.748;19.142;2024-03-23T10:22:50;28.39;27.13;29.69;;
72805;Laerm;60920;48.748;19.142;2024-03-23T10:25:16;28.41;27.07;31.88;;
72805;Laerm;60920;48.748;19.142;2024-03-23T10:27:42;28.36;27.15;30.59;;
72805;Laerm;60920;48.748;19.142;2024-03-23T10:30:14;28.63;26.96;41.15;;
72805;Laerm;60920;48.748;19.142;2024-03-23T10:32:40;28.41;27.22;36.24;;
72805;Laerm;60920;48.748;19.142;2024-03-23T10:35:15;28.35;26.98;34.08;;
72805;Laerm;60920;48.748;19.142;2024-03-23T10:37:41;29.05;26.84;39.93;;
72805;Laerm;60920;48.748;19.142;2024-03-23T10:40:07;28.55;27.28;31.92;;
72805;Laerm;60920;48.748;19.142;2024-03-23T10:42:34;28.63;27.22;29.97;;
72805;Laerm;60920;48.748;19.142;2024-03-23T10:44:59;28.51;27.11;32.08;;
72805;Laerm;60920;48.748;19.142;2024-03-23T10:47:25;28.54;27.27;30.81;;
72805;Laerm;60920;48.748;19.142;2024-03-23T10:49:51;28.51;27.02;30.53;;
72805;Laerm;60920;48.748;19.142;2024-03-23T10:52:16;28.58;27.17;30.00;;
72805;Laerm;60920;48.748;19.142;2024-03-23T10:54:41;28.69;27.18;29.94;;
72805;Laerm;60920;48.748;19.142;2024-03-23T10:57:10;28.75;27.29;30.78;;
72805;Laerm;60920;48.748;19.142;2024-03-23T10:59:36;28.73;27.39;30.60;;
72805;Laerm;60920;48.748;19.142;2024-03-23T11:02:03;28.76;27.51;29.99;;
72805;Laerm;60920;48.748;19.142;2024-03-23T11:06:57;28.73;27.45;29.89;;
72805;Laerm;60920;48.748;19.142;2024-03-23T11:12:13;28.87;27.51;30.25;;
72805;Laerm;60920;48.748;19.142;2024-03-23T11:14:42;28.95;27.62;30.17;;
72805;Laerm;60920;48.748;19.142;2024-03-23T11:17:08;28.91;27.63;36.79;;
72805;Laerm;60920;48.748;19.142;2024-03-23T11:19:34;28.78;27.66;33.60;;
72805;Laerm;60920;48.748;19.142;2024-03-23T11:22:01;28.92;27.32;30.42;;
72805;Laerm;60920;48.748;19.142;2024-03-23T11:24:26;28.84;27.40;32.62;;
72805;Laerm;60920;48.748;19.142;2024-03-23T11:26:52;28.65;27.24;32.84;;
72805;Laerm;60920;48.748;19.142;2024-03-23T11:29:17;28.71;27.34;31.86;;
72805;Laerm;60920;48.748;19.142;2024-03-23T11:31:46;28.81;27.46;31.67;;
72805;Laerm;60920;48.748;19.142;2024-03-23T11:34:12;29.01;27.06;42.38;;
72805;Laerm;60920;48.748;19.142;2024-03-23T11:36:38;28.72;27.49;35.51;;
72805;Laerm;60920;48.748;19.142;2024-03-23T11:39:19;28.60;27.22;32.63;;
72805;Laerm;60920;48.748;19.142;2024-03-23T11:41:45;28.61;27.19;32.35;;
72805;Laerm;60920;48.748;19.142;2024-03-23T11:44:15;28.63;27.23;29.79;;
72805;Laerm;60920;48.748;19.142;2024-03-23T11:46:40;28.64;27.17;29.89;;
72805;Laerm;60920;48.748;19.142;2024-03-23T11:49:06;28.65;27.33;29.94;;
72805;Laerm;60920;48.748;19.142;2024-03-23T11:51:31;28.66;27.34;29.89;;
72805;Laerm;60920;48.748;19.142;2024-03-23T11:54:07;28.59;27.18;29.78;;
72805;Laerm;60920;48.748;19.142;2024-03-23T11:56:32;28.65;27.32;30.37;;
72805;Laerm;60920;48.748;19.142;2024-03-23T11:58:58;29.52;27.22;38.37;;
72805;Laerm;60920;48.748;19.142;2024-03-23T12:01:23;28.70;27.43;30.18;;
72805;Laerm;60920;48.748;19.142;2024-03-23T12:03:49;28.64;27.31;29.93;;
72805;Laerm;60920;48.748;19.142;2024-03-23T12:06:19;28.77;27.35;38.39;;
72805;Laerm;60920;48.748;19.142;2024-03-23T12:08:44;28.61;27.02;30.08;;
72805;Laerm;60920;48.748;19.142;2024-03-23T12:11:10;28.52;27.23;29.86;;
72805;Laerm;60920;48.748;19.142;2024-03-23T12:13:36;28.53;26.85;29.68;;
72805;Laerm;60920;48.748;19.142;2024-03-23T12:16:20;28.47;27.17;29.63;;
72805;Laerm;60920;48.748;19.142;2024-03-23T12:18:46;28.48;27.03;29.74;;
72805;Laerm;60920;48.748;19.142;2024-03-23T12:21:12;28.49;27.16;29.78;;
72805;Laerm;60920;48.748;19.142;2024-03-23T12:23:41;28.43;27.09;32.91;;
72805;Laerm;60920;48.748;19.142;2024-03-23T12:26:07;28.50;27.05;29.92;;
72805;Laerm;60920;48.748;19.142;2024-03-23T12:28:32;28.50;27.11;29.82;;
72805;Laerm;60920;48.748;19.142;2024-03-23T12:30:58;28.49;27.31;29.86;;
72805;Laerm;60920;48.748;19.142;2024-03-23T12:33:23;28.41;27.19;29.71;;
72805;Laerm;60920;48.748;19.142;2024-03-23T12:35:48;28.44;27.20;29.52;;
72805;Laerm;60920;48.748;19.142;2024-03-23T12:38:14;28.63;27.17;41.28;;
72805;Laerm;60920;48.748;19.142;2024-03-23T12:40:40;28.49;27.12;34.84;;
72805;Laerm;60920;48.748;19.142;2024-03-23T12:43:06;28.34;26.79;29.87;;
72805;Laerm;60920;48.748;19.142;2024-03-23T12:45:32;28.34;27.00;29.55;;
72805;Laerm;60920;48.748;19.142;2024-03-23T12:47:58;28.36;26.99;29.57;;
72805;Laerm;60920;48.748;19.142;2024-03-23T12:50:23;28.40;27.13;31.91;;
72805;Laerm;60920;48.748;19.142;2024-03-23T12:52:48;28.36;27.06;31.12;;
72805;Laerm;60920;48.748;19.142;2024-03-23T12:55:14;28.36;27.08;36.51;;
72805;Laerm;60920;48.748;19.142;2024-03-23T12:57:39;28.47;27.22;30.99;;
72805;Laerm;60920;48.748;19.142;2024-03-23T13:00:06;28.46;27.00;32.68;;
72805;Laerm;60920;48.748;19.142;2024-03-23T13:02:31;28.77;26.99;47.77;;
72805;Laerm;60920;48.748;19.142;2024-03-23T13:04:56;28.40;26.56;31.48;;
72805;Laerm;60920;48.748;19.142;2024-03-23T13:07:22;28.39;26.82;30.30;;
72805;Laerm;60920;48.748;19.142;2024-03-23T13:09:51;28.43;26.84;31.79;;
72805;Laerm;60920;48.748;19.142;2024-03-23T13:12:17;28.45;26.93;31.77;;
72805;Laerm;60920;48.748;19.142;2024-03-23T13:14:43;28.36;26.87;30.95;;
72805;Laerm;60920;48.748;19.142;2024-03-23T13:17:09;28.31;26.90;30.28;;
72805;Laerm;60920;48.748;19.142;2024-03-23T13:19:34;28.36;27.03;30.19;;
72805;Laerm;60920;48.748;19.142;2024-03-23T13:22:00;28.36;26.98;30.11;;
72805;Laerm;60920;48.748;19.142;2024-03-23T13:24:27;28.33;26.87;32.30;;
72805;Laerm;60920;48.748;19.142;2024-03-23T13:26:53;28.37;27.12;29.73;;
72805;Laerm;60920;48.748;19.142;2024-03-23T13:29:19;28.47;27.09;39.79;;
72805;Laerm;60920;48.748;19.142;2024-03-23T13:31:45;28.42;27.11;29.78;;
72805;Laerm;60920;48.748;19.142;2024-03-23T13:34:10;28.43;27.19;29.79;;
72805;Laerm;60920;48.748;19.142;2024-03-23T13:36:36;28.40;27.01;29.75;;
72805;Laerm;60920;48.748;19.142;2024-03-23T13:39:02;28.46;27.15;29.80;;
72805;Laerm;60920;48.748;19.142;2024-03-23T13:41:30;28.48;26.96;30.91;;
72805;Laerm;60920;48.748;19.142;2024-03-23T13:43:55;28.49;27.16;29.74;;
72805;Laerm;60920;48.748;19.142;2024-03-23T13:46:21;28.50;27.05;29.99;;
72805;Laerm;60920;48.748;19.142;2024-03-23T13:48:46;28.50;27.18;30.98;;
72805;Laerm;60920;48.748;19.142;2024-03-23T13:51:11;28.42;27.00;33.26;;
72805;Laerm;60920;48.748;19.142;2024-03-23T13:53:38;28.40;26.88;31.87;;
72805;Laerm;60920;48.748;19.142;2024-03-23T13:56:03;28.28;26.65;30.13;;
72805;Laerm;60920;48.748;19.142;2024-03-23T13:58:29;28.34;27.14;29.93;;
72805;Laerm;60920;48.748;19.142;2024-03-23T14:00:56;28.34;27.06;29.71;;
72805;Laerm;60920;48.748;19.142;2024-03-23T14:03:22;28.27;26.85;29.56;;
72805;Laerm;60920;48.748;19.142;2024-03-23T14:05:47;28.27;26.85;29.43;;
72805;Laerm;60920;48.748;19.142;2024-03-23T14:08:12;28.28;27.00;29.52;;
72805;Laerm;60920;48.748;19.142;2024-03-23T14:10:41;28.19;26.76;29.43;;
72805;Laerm;60920;48.748;19.142;2024-03-23T14:13:06;28.24;26.94;30.24;;
72805;Laerm;60920;48.748;19.142;2024-03-23T14:15:32;28.28;27.00;29.56;;
72805;Laerm;60920;48.748;19.142;2024-03-23T14:17:57;28.30;26.91;30.74;;
72805;Laerm;60920;48.748;19.142;2024-03-23T14:20:23;29.25;26.83;43.48;;
72805;Laerm;60920;48.748;19.142;2024-03-23T14:22:51;29.55;26.89;40.59;;
72805;Laerm;60920;48.748;19.142;2024-03-23T14:25:16;29.24;26.94;42.68;;